sensor_id;sensor_type;location;lat;lon;timestamp;P1;durP1;ratioP1;P2;durP2;ratioP2
72557;SDS011;60583;50.094;8.748;2024-02-16T00:00:07;4.70;;;2.30;;
72557;SDS011;60583;50.094;8.748;2024-02-16T00:02:52;6.25;;;2.78;;
72557;SDS011;60583;50.094;8.748;2024-02-16T00:05:36;8.13;;;2.67;;
72557;SDS011;60583;50.094;8.748;2024-02-16T00:08:20;7.40;;;2.40;;
72557;SDS011;60583;50.094;8.748;2024-02-16T00:11:05;6.97;;;3.03;;
72557;SDS011;60583;50.094;8.748;2024-02-16T00:13:49;6.43;;;2.70;;
72557;SDS011;60583;50.094;8.748;2024-02-16T00:16:33;7.10;;;2.97;;
72557;SDS011;60583;50.094;8.748;2024-02-16T00:19:17;7.43;;;3.05;;
72557;SDS011;60583;50.094;8.748;2024-02-16T00:22:02;6.85;;;2.67;;
72557;SDS011;60583;50.094;8.748;2024-02-16T00:24:46;7.13;;;2.90;;
72557;SDS011;60583;50.094;8.748;2024-02-16T00:27:31;6.47;;;2.58;;
72557;SDS011;60583;50.094;8.748;2024-02-16T00:30:15;6.28;;;2.50;;
72557;SDS011;60583;50.094;8.748;2024-02-16T00:33:02;5.03;;;2.22;;
72557;SDS011;60583;50.094;8.748;2024-02-16T00:35:46;4.38;;;2.38;;
72557;SDS011;60583;50.094;8.748;2024-02-16T00:38:32;4.03;;;2.20;;
72557;SDS011;60583;50.094;8.748;2024-02-16T00:41:16;4.97;;;2.28;;
72557;SDS011;60583;50.094;8.748;2024-02-16T00:44:02;4.85;;;2.05;;
72557;SDS011;60583;50.094;8.748;2024-02-16T00:46:45;5.05;;;2.10;;
72557;SDS011;60583;50.094;8.748;2024-02-16T00:49:30;5.45;;;2.13;;
72557;SDS011;60583;50.094;8.748;2024-02-16T00:52:15;5.60;;;2.40;;
72557;SDS011;60583;50.094;8.748;2024-02-16T00:54:59;6.45;;;2.60;;
72557;SDS011;60583;50.094;8.748;2024-02-16T00:57:43;6.85;;;2.83;;
72557;SDS011;60583;50.094;8.748;2024-02-16T01:00:27;10.15;;;2.95;;
72557;SDS011;60583;50.094;8.748;2024-02-16T01:03:11;5.30;;;2.33;;
72557;SDS011;60583;50.094;8.748;2024-02-16T01:05:56;7.13;;;2.78;;
72557;SDS011;60583;50.094;8.748;2024-02-16T01:08:41;7.38;;;2.97;;
72557;SDS011;60583;50.094;8.748;2024-02-16T01:11:26;7.18;;;2.90;;
72557;SDS011;60583;50.094;8.748;2024-02-16T01:14:10;5.68;;;2.53;;
72557;SDS011;60583;50.094;8.748;2024-02-16T01:16:54;7.15;;;2.75;;
72557;SDS011;60583;50.094;8.748;2024-02-16T01:19:37;5.80;;;2.70;;
72557;SDS011;60583;50.094;8.748;2024-02-16T01:22:21;7.57;;;2.92;;
72557;SDS011;60583;50.094;8.748;2024-02-16T01:25:06;8.65;;;3.28;;
72557;SDS011;60583;50.094;8.748;2024-02-16T01:27:52;7.25;;;2.60;;
72557;SDS011;60583;50.094;8.748;2024-02-16T01:30:36;6.43;;;2.60;;
72557;SDS011;60583;50.094;8.748;2024-02-16T01:33:20;5.57;;;2.28;;
72557;SDS011;60583;50.094;8.748;2024-02-16T01:36:04;7.13;;;2.85;;
72557;SDS011;60583;50.094;8.748;2024-02-16T01:38:48;6.18;;;2.53;;
72557;SDS011;60583;50.094;8.748;2024-02-16T01:41:32;8.07;;;2.80;;
72557;SDS011;60583;50.094;8.748;2024-02-16T01:44:16;6.18;;;2.90;;
72557;SDS011;60583;50.094;8.748;2024-02-16T01:47:00;7.80;;;2.80;;
72557;SDS011;60583;50.094;8.748;2024-02-16T01:49:45;5.57;;;2.40;;
72557;SDS011;60583;50.094;8.748;2024-02-16T01:52:29;5.63;;;2.50;;
72557;SDS011;60583;50.094;8.748;2024-02-16T01:55:15;5.75;;;2.58;;
72557;SDS011;60583;50.094;8.748;2024-02-16T01:57:59;6.60;;;2.70;;
72557;SDS011;60583;50.094;8.748;2024-02-16T02:00:43;5.80;;;2.58;;
72557;SDS011;60583;50.094;8.748;2024-02-16T02:03:28;6.10;;;3.10;;
72557;SDS011;60583;50.094;8.748;2024-02-16T02:06:15;8.30;;;3.70;;
72557;SDS011;60583;50.094;8.748;2024-02-16T02:08:59;7.78;;;3.13;;
72557;SDS011;60583;50.094;8.748;2024-02-16T02:11:43;8.32;;;3.10;;
72557;SDS011;60583;50.094;8.748;2024-02-16T02:14:28;5.25;;;2.20;;
72557;SDS011;60583;50.094;8.748;2024-02-16T02:17:12;4.88;;;2.08;;
72557;SDS011;60583;50.094;8.748;2024-02-16T02:19:56;5.22;;;2.50;;
72557;SDS011;60583;50.094;8.748;2024-02-16T02:22:40;6.32;;;2.30;;
72557;SDS011;60583;50.094;8.748;2024-02-16T02:25:24;6.60;;;2.20;;
72557;SDS011;60583;50.094;8.748;2024-02-16T02:28:10;4.63;;;2.05;;
72557;SDS011;60583;50.094;8.748;2024-02-16T02:30:54;5.25;;;1.90;;
72557;SDS011;60583;50.094;8.748;2024-02-16T02:33:38;7.18;;;2.45;;
72557;SDS011;60583;50.094;8.748;2024-02-16T02:36:22;3.67;;;2.08;;
72557;SDS011;60583;50.094;8.748;2024-02-16T02:39:06;6.25;;;2.20;;
72557;SDS011;60583;50.094;8.748;2024-02-16T02:41:50;5.68;;;2.42;;
72557;SDS011;60583;50.094;8.748;2024-02-16T02:44:34;7.72;;;2.47;;
72557;SDS011;60583;50.094;8.748;2024-02-16T02:47:18;6.57;;;2.42;;
72557;SDS011;60583;50.094;8.748;2024-02-16T02:50:02;4.97;;;2.20;;
72557;SDS011;60583;50.094;8.748;2024-02-16T02:52:48;5.55;;;2.28;;
72557;SDS011;60583;50.094;8.748;2024-02-16T02:55:32;5.82;;;2.33;;
72557;SDS011;60583;50.094;8.748;2024-02-16T02:58:16;6.10;;;2.70;;
72557;SDS011;60583;50.094;8.748;2024-02-16T03:01:00;4.85;;;2.20;;
72557;SDS011;60583;50.094;8.748;2024-02-16T03:03:44;6.28;;;2.33;;
72557;SDS011;60583;50.094;8.748;2024-02-16T03:06:28;5.07;;;2.15;;
72557;SDS011;60583;50.094;8.748;2024-02-16T03:09:12;6.10;;;2.50;;
72557;SDS011;60583;50.094;8.748;2024-02-16T03:11:56;5.07;;;2.30;;
72557;SDS011;60583;50.094;8.748;2024-02-16T03:14:40;4.80;;;2.13;;
72557;SDS011;60583;50.094;8.748;2024-02-16T03:17:25;5.45;;;2.33;;
72557;SDS011;60583;50.094;8.748;2024-02-16T03:20:09;4.25;;;2.20;;
72557;SDS011;60583;50.094;8.748;2024-02-16T03:22:53;5.28;;;2.20;;
72557;SDS011;60583;50.094;8.748;2024-02-16T03:25:37;6.32;;;2.40;;
72557;SDS011;60583;50.094;8.748;2024-02-16T03:28:21;6.15;;;2.88;;
72557;SDS011;60583;50.094;8.748;2024-02-16T03:31:05;5.10;;;2.08;;
72557;SDS011;60583;50.094;8.748;2024-02-16T03:33:49;6.53;;;2.78;;
72557;SDS011;60583;50.094;8.748;2024-02-16T03:36:37;8.45;;;2.95;;
72557;SDS011;60583;50.094;8.748;2024-02-16T03:39:22;5.65;;;2.22;;
72557;SDS011;60583;50.094;8.748;2024-02-16T03:42:06;4.28;;;2.20;;
72557;SDS011;60583;50.094;8.748;2024-02-16T03:44:50;5.50;;;2.42;;
72557;SDS011;60583;50.094;8.748;2024-02-16T03:47:33;5.78;;;2.78;;
72557;SDS011;60583;50.094;8.748;2024-02-16T03:50:18;4.47;;;2.15;;
72557;SDS011;60583;50.094;8.748;2024-02-16T03:53:02;5.35;;;2.28;;
72557;SDS011;60583;50.094;8.748;2024-02-16T03:55:48;6.93;;;2.58;;
72557;SDS011;60583;50.094;8.748;2024-02-16T03:58:31;6.28;;;2.33;;
72557;SDS011;60583;50.094;8.748;2024-02-16T04:01:16;6.68;;;2.33;;
72557;SDS011;60583;50.094;8.748;2024-02-16T04:04:00;4.93;;;2.50;;
72557;SDS011;60583;50.094;8.748;2024-02-16T04:06:44;4.53;;;2.33;;
72557;SDS011;60583;50.094;8.748;2024-02-16T04:09:28;5.40;;;2.45;;
72557;SDS011;60583;50.094;8.748;2024-02-16T04:12:11;5.32;;;2.17;;
72557;SDS011;60583;50.094;8.748;2024-02-16T04:14:55;5.15;;;2.45;;
72557;SDS011;60583;50.094;8.748;2024-02-16T04:17:39;6.45;;;2.70;;
72557;SDS011;60583;50.094;8.748;2024-02-16T04:20:23;6.13;;;2.70;;
72557;SDS011;60583;50.094;8.748;2024-02-16T04:23:07;5.38;;;2.42;;
72557;SDS011;60583;50.094;8.748;2024-02-16T04:25:51;6.50;;;2.78;;
72557;SDS011;60583;50.094;8.748;2024-02-16T04:28:35;5.47;;;3.00;;
72557;SDS011;60583;50.094;8.748;2024-02-16T04:31:19;5.68;;;2.90;;
72557;SDS011;60583;50.094;8.748;2024-02-16T04:34:03;8.52;;;3.05;;
72557;SDS011;60583;50.094;8.748;2024-02-16T04:36:48;6.53;;;2.90;;
72557;SDS011;60583;50.094;8.748;2024-02-16T04:39:32;5.53;;;3.10;;
72557;SDS011;60583;50.094;8.748;2024-02-16T04:42:16;5.05;;;2.95;;
72557;SDS011;60583;50.094;8.748;2024-02-16T04:45:00;5.88;;;2.63;;
72557;SDS011;60583;50.094;8.748;2024-02-16T04:47:45;6.35;;;2.83;;
72557;SDS011;60583;50.094;8.748;2024-02-16T04:50:29;4.50;;;2.40;;
72557;SDS011;60583;50.094;8.748;2024-02-16T04:53:13;6.03;;;2.83;;
72557;SDS011;60583;50.094;8.748;2024-02-16T04:55:56;6.60;;;3.00;;
72557;SDS011;60583;50.094;8.748;2024-02-16T04:58:41;7.70;;;2.90;;
72557;SDS011;60583;50.094;8.748;2024-02-16T05:01:25;7.25;;;3.17;;
72557;SDS011;60583;50.094;8.748;2024-02-16T05:04:09;6.70;;;2.97;;
72557;SDS011;60583;50.094;8.748;2024-02-16T05:06:53;5.60;;;2.58;;
72557;SDS011;60583;50.094;8.748;2024-02-16T05:09:41;7.47;;;3.10;;
72557;SDS011;60583;50.094;8.748;2024-02-16T05:12:25;7.88;;;3.33;;
72557;SDS011;60583;50.094;8.748;2024-02-16T05:15:09;6.07;;;3.30;;
72557;SDS011;60583;50.094;8.748;2024-02-16T05:17:53;6.53;;;3.30;;
72557;SDS011;60583;50.094;8.748;2024-02-16T05:20:37;7.70;;;3.30;;
72557;SDS011;60583;50.094;8.748;2024-02-16T05:23:21;6.65;;;2.97;;
72557;SDS011;60583;50.094;8.748;2024-02-16T05:26:06;5.35;;;2.83;;
72557;SDS011;60583;50.094;8.748;2024-02-16T05:28:50;7.97;;;3.00;;
72557;SDS011;60583;50.094;8.748;2024-02-16T05:31:34;7.07;;;3.08;;
72557;SDS011;60583;50.094;8.748;2024-02-16T05:34:18;8.85;;;3.33;;
72557;SDS011;60583;50.094;8.748;2024-02-16T05:37:02;5.68;;;2.92;;
72557;SDS011;60583;50.094;8.748;2024-02-16T05:39:47;8.40;;;4.07;;
72557;SDS011;60583;50.094;8.748;2024-02-16T05:42:51;6.38;;;3.40;;
72557;SDS011;60583;50.094;8.748;2024-02-16T05:45:35;7.53;;;3.17;;
72557;SDS011;60583;50.094;8.748;2024-02-16T05:48:19;5.93;;;3.25;;
72557;SDS011;60583;50.094;8.748;2024-02-16T05:51:03;5.97;;;3.00;;
72557;SDS011;60583;50.094;8.748;2024-02-16T05:53:49;6.57;;;3.50;;
72557;SDS011;60583;50.094;8.748;2024-02-16T05:56:36;7.50;;;3.88;;
72557;SDS011;60583;50.094;8.748;2024-02-16T05:59:22;5.95;;;2.95;;
72557;SDS011;60583;50.094;8.748;2024-02-16T06:02:08;7.13;;;3.20;;
72557;SDS011;60583;50.094;8.748;2024-02-16T06:04:54;7.03;;;4.32;;
72557;SDS011;60583;50.094;8.748;2024-02-16T06:07:38;5.60;;;3.15;;
72557;SDS011;60583;50.094;8.748;2024-02-16T06:10:23;7.05;;;3.55;;
72557;SDS011;60583;50.094;8.748;2024-02-16T06:13:07;7.53;;;3.28;;
72557;SDS011;60583;50.094;8.748;2024-02-16T06:15:51;8.90;;;3.53;;
72557;SDS011;60583;50.094;8.748;2024-02-16T06:18:35;7.35;;;3.25;;
72557;SDS011;60583;50.094;8.748;2024-02-16T06:21:20;7.38;;;3.78;;
72557;SDS011;60583;50.094;8.748;2024-02-16T06:24:04;9.05;;;3.78;;
72557;SDS011;60583;50.094;8.748;2024-02-16T06:26:48;7.43;;;4.05;;
72557;SDS011;60583;50.094;8.748;2024-02-16T06:29:33;11.73;;;5.18;;
72557;SDS011;60583;50.094;8.748;2024-02-16T06:32:16;9.15;;;4.07;;
72557;SDS011;60583;50.094;8.748;2024-02-16T06:35:00;10.30;;;3.97;;
72557;SDS011;60583;50.094;8.748;2024-02-16T06:37:44;10.93;;;5.18;;
72557;SDS011;60583;50.094;8.748;2024-02-16T06:40:28;10.18;;;5.10;;
72557;SDS011;60583;50.094;8.748;2024-02-16T06:43:13;11.02;;;5.20;;
72557;SDS011;60583;50.094;8.748;2024-02-16T06:45:56;10.32;;;5.35;;
72557;SDS011;60583;50.094;8.748;2024-02-16T06:48:41;9.95;;;4.95;;
72557;SDS011;60583;50.094;8.748;2024-02-16T06:51:25;7.63;;;4.00;;
72557;SDS011;60583;50.094;8.748;2024-02-16T06:54:10;7.88;;;4.43;;
72557;SDS011;60583;50.094;8.748;2024-02-16T06:56:54;6.32;;;3.33;;
72557;SDS011;60583;50.094;8.748;2024-02-16T06:59:38;6.07;;;3.10;;
72557;SDS011;60583;50.094;8.748;2024-02-16T07:02:22;5.40;;;2.70;;
72557;SDS011;60583;50.094;8.748;2024-02-16T07:05:06;6.50;;;2.72;;
72557;SDS011;60583;50.094;8.748;2024-02-16T07:07:51;6.07;;;2.60;;
72557;SDS011;60583;50.094;8.748;2024-02-16T07:10:35;4.72;;;2.55;;
72557;SDS011;60583;50.094;8.748;2024-02-16T07:13:19;6.05;;;2.60;;
72557;SDS011;60583;50.094;8.748;2024-02-16T07:16:03;5.28;;;2.63;;
72557;SDS011;60583;50.094;8.748;2024-02-16T07:18:47;5.75;;;2.85;;
72557;SDS011;60583;50.094;8.748;2024-02-16T07:21:31;5.28;;;2.70;;
72557;SDS011;60583;50.094;8.748;2024-02-16T07:24:15;7.68;;;3.00;;
72557;SDS011;60583;50.094;8.748;2024-02-16T07:27:00;4.68;;;2.85;;
72557;SDS011;60583;50.094;8.748;2024-02-16T07:29:45;5.80;;;2.55;;
72557;SDS011;60583;50.094;8.748;2024-02-16T07:32:29;6.22;;;2.80;;
72557;SDS011;60583;50.094;8.748;2024-02-16T07:35:13;5.28;;;2.40;;
72557;SDS011;60583;50.094;8.748;2024-02-16T07:37:57;5.38;;;2.90;;
72557;SDS011;60583;50.094;8.748;2024-02-16T07:40:41;5.18;;;2.40;;
72557;SDS011;60583;50.094;8.748;2024-02-16T07:43:26;6.68;;;3.08;;
72557;SDS011;60583;50.094;8.748;2024-02-16T07:46:10;5.32;;;2.65;;
72557;SDS011;60583;50.094;8.748;2024-02-16T07:48:54;4.82;;;2.40;;
72557;SDS011;60583;50.094;8.748;2024-02-16T07:51:39;6.07;;;2.75;;
72557;SDS011;60583;50.094;8.748;2024-02-16T07:54:23;7.20;;;3.08;;
72557;SDS011;60583;50.094;8.748;2024-02-16T07:57:07;6.35;;;3.10;;
72557;SDS011;60583;50.094;8.748;2024-02-16T07:59:51;7.10;;;2.97;;
72557;SDS011;60583;50.094;8.748;2024-02-16T08:02:35;5.20;;;2.45;;
72557;SDS011;60583;50.094;8.748;2024-02-16T08:05:19;4.60;;;2.60;;
72557;SDS011;60583;50.094;8.748;2024-02-16T08:08:03;5.43;;;2.72;;
72557;SDS011;60583;50.094;8.748;2024-02-16T08:10:48;6.18;;;3.08;;
72557;SDS011;60583;50.094;8.748;2024-02-16T08:13:32;6.78;;;3.47;;
72557;SDS011;60583;50.094;8.748;2024-02-16T08:16:15;5.82;;;3.35;;
72557;SDS011;60583;50.094;8.748;2024-02-16T08:19:00;7.68;;;4.07;;
72557;SDS011;60583;50.094;8.748;2024-02-16T08:21:43;7.60;;;3.88;;
72557;SDS011;60583;50.094;8.748;2024-02-16T08:24:27;9.15;;;3.83;;
72557;SDS011;60583;50.094;8.748;2024-02-16T08:27:11;7.75;;;4.72;;
72557;SDS011;60583;50.094;8.748;2024-02-16T08:29:59;9.30;;;4.55;;
72557;SDS011;60583;50.094;8.748;2024-02-16T08:32:43;6.55;;;4.03;;
72557;SDS011;60583;50.094;8.748;2024-02-16T08:35:28;7.07;;;4.05;;
72557;SDS011;60583;50.094;8.748;2024-02-16T08:38:13;9.07;;;4.53;;
72557;SDS011;60583;50.094;8.748;2024-02-16T08:40:57;13.55;;;5.95;;
72557;SDS011;60583;50.094;8.748;2024-02-16T08:43:40;9.23;;;4.65;;
72557;SDS011;60583;50.094;8.748;2024-02-16T08:46:24;7.10;;;4.10;;
72557;SDS011;60583;50.094;8.748;2024-02-16T08:49:08;6.97;;;3.85;;
72557;SDS011;60583;50.094;8.748;2024-02-16T08:51:53;9.48;;;4.40;;
72557;SDS011;60583;50.094;8.748;2024-02-16T08:54:36;9.65;;;5.35;;
72557;SDS011;60583;50.094;8.748;2024-02-16T08:57:20;7.82;;;4.03;;
72557;SDS011;60583;50.094;8.748;2024-02-16T09:00:04;9.23;;;4.32;;
72557;SDS011;60583;50.094;8.748;2024-02-16T09:02:49;9.93;;;4.50;;
72557;SDS011;60583;50.094;8.748;2024-02-16T09:05:33;6.72;;;4.22;;
72557;SDS011;60583;50.094;8.748;2024-02-16T09:08:17;7.90;;;4.25;;
72557;SDS011;60583;50.094;8.748;2024-02-16T09:11:04;9.20;;;4.63;;
72557;SDS011;60583;50.094;8.748;2024-02-16T09:13:49;9.07;;;4.57;;
72557;SDS011;60583;50.094;8.748;2024-02-16T09:16:33;7.00;;;4.72;;
72557;SDS011;60583;50.094;8.748;2024-02-16T09:19:18;9.00;;;4.63;;
72557;SDS011;60583;50.094;8.748;2024-02-16T09:22:03;8.77;;;4.57;;
72557;SDS011;60583;50.094;8.748;2024-02-16T09:24:49;8.68;;;4.97;;
72557;SDS011;60583;50.094;8.748;2024-02-16T09:27:33;9.23;;;5.68;;
72557;SDS011;60583;50.094;8.748;2024-02-16T09:30:24;9.27;;;5.03;;
72557;SDS011;60583;50.094;8.748;2024-02-16T09:33:08;10.52;;;4.60;;
72557;SDS011;60583;50.094;8.748;2024-02-16T09:35:52;7.60;;;4.78;;
72557;SDS011;60583;50.094;8.748;2024-02-16T09:38:36;10.88;;;4.95;;
72557;SDS011;60583;50.094;8.748;2024-02-16T09:41:20;8.25;;;4.47;;
72557;SDS011;60583;50.094;8.748;2024-02-16T09:44:04;9.45;;;5.00;;
72557;SDS011;60583;50.094;8.748;2024-02-16T09:46:47;8.57;;;5.20;;
72557;SDS011;60583;50.094;8.748;2024-02-16T09:49:31;8.95;;;4.88;;
72557;SDS011;60583;50.094;8.748;2024-02-16T09:52:15;10.05;;;5.07;;
72557;SDS011;60583;50.094;8.748;2024-02-16T09:54:59;9.98;;;4.50;;
72557;SDS011;60583;50.094;8.748;2024-02-16T09:57:43;9.40;;;4.63;;
72557;SDS011;60583;50.094;8.748;2024-02-16T10:00:27;9.85;;;5.25;;
72557;SDS011;60583;50.094;8.748;2024-02-16T10:03:20;8.48;;;4.63;;
72557;SDS011;60583;50.094;8.748;2024-02-16T10:06:10;8.63;;;4.57;;
72557;SDS011;60583;50.094;8.748;2024-02-16T10:08:55;8.50;;;4.88;;
72557;SDS011;60583;50.094;8.748;2024-02-16T10:11:44;10.25;;;4.78;;
72557;SDS011;60583;50.094;8.748;2024-02-16T10:14:28;8.80;;;4.57;;
72557;SDS011;60583;50.094;8.748;2024-02-16T10:17:16;8.85;;;5.07;;
72557;SDS011;60583;50.094;8.748;2024-02-16T10:20:00;7.25;;;4.57;;
72557;SDS011;60583;50.094;8.748;2024-02-16T10:23:01;8.80;;;4.60;;
72557;SDS011;60583;50.094;8.748;2024-02-16T10:25:46;8.00;;;4.40;;
72557;SDS011;60583;50.094;8.748;2024-02-16T10:28:30;7.22;;;4.38;;
72557;SDS011;60583;50.094;8.748;2024-02-16T10:31:14;8.50;;;4.78;;
72557;SDS011;60583;50.094;8.748;2024-02-16T10:34:03;7.78;;;4.68;;
72557;SDS011;60583;50.094;8.748;2024-02-16T10:36:53;8.00;;;4.72;;
72557;SDS011;60583;50.094;8.748;2024-02-16T10:39:38;8.98;;;4.70;;
72557;SDS011;60583;50.094;8.748;2024-02-16T10:42:25;7.57;;;5.28;;
72557;SDS011;60583;50.094;8.748;2024-02-16T10:45:11;8.57;;;4.50;;
72557;SDS011;60583;50.094;8.748;2024-02-16T10:47:57;7.88;;;4.15;;
72557;SDS011;60583;50.094;8.748;2024-02-16T10:50:41;8.02;;;4.55;;
72557;SDS011;60583;50.094;8.748;2024-02-16T10:53:26;6.78;;;4.00;;
72557;SDS011;60583;50.094;8.748;2024-02-16T10:56:13;9.52;;;4.43;;
72557;SDS011;60583;50.094;8.748;2024-02-16T10:58:59;6.78;;;4.40;;
72557;SDS011;60583;50.094;8.748;2024-02-16T11:01:44;8.75;;;4.43;;
72557;SDS011;60583;50.094;8.748;2024-02-16T11:04:38;6.65;;;4.13;;
72557;SDS011;60583;50.094;8.748;2024-02-16T11:07:24;7.72;;;4.25;;
72557;SDS011;60583;50.094;8.748;2024-02-16T11:10:11;6.85;;;3.83;;
72557;SDS011;60583;50.094;8.748;2024-02-16T11:12:59;8.20;;;4.30;;
72557;SDS011;60583;50.094;8.748;2024-02-16T11:15:45;8.25;;;4.00;;
72557;SDS011;60583;50.094;8.748;2024-02-16T11:18:41;7.75;;;4.10;;
72557;SDS011;60583;50.094;8.748;2024-02-16T11:21:30;7.22;;;3.63;;
72557;SDS011;60583;50.094;8.748;2024-02-16T11:24:14;7.80;;;3.83;;
72557;SDS011;60583;50.094;8.748;2024-02-16T11:26:58;7.68;;;3.40;;
72557;SDS011;60583;50.094;8.748;2024-02-16T11:29:42;7.38;;;3.38;;
72557;SDS011;60583;50.094;8.748;2024-02-16T11:32:26;6.55;;;3.50;;
72557;SDS011;60583;50.094;8.748;2024-02-16T11:35:10;8.35;;;3.45;;
72557;SDS011;60583;50.094;8.748;2024-02-16T11:37:55;5.80;;;3.60;;
72557;SDS011;60583;50.094;8.748;2024-02-16T11:40:40;7.15;;;3.53;;
72557;SDS011;60583;50.094;8.748;2024-02-16T11:43:24;5.70;;;3.13;;
72557;SDS011;60583;50.094;8.748;2024-02-16T11:46:13;6.97;;;4.05;;
72557;SDS011;60583;50.094;8.748;2024-02-16T11:49:07;6.70;;;3.60;;
72557;SDS011;60583;50.094;8.748;2024-02-16T11:51:51;6.78;;;3.38;;
72557;SDS011;60583;50.094;8.748;2024-02-16T11:54:35;7.32;;;4.28;;
72557;SDS011;60583;50.094;8.748;2024-02-16T11:57:20;6.95;;;3.60;;
72557;SDS011;60583;50.094;8.748;2024-02-16T12:00:05;8.18;;;3.60;;
72557;SDS011;60583;50.094;8.748;2024-02-16T12:02:59;6.28;;;3.13;;
72557;SDS011;60583;50.094;8.748;2024-02-16T12:05:54;6.07;;;3.63;;
72557;SDS011;60583;50.094;8.748;2024-02-16T12:08:40;6.65;;;3.30;;
72557;SDS011;60583;50.094;8.748;2024-02-16T12:11:24;7.45;;;3.40;;
72557;SDS011;60583;50.094;8.748;2024-02-16T12:14:07;8.25;;;3.55;;
72557;SDS011;60583;50.094;8.748;2024-02-16T12:16:52;7.47;;;3.40;;
72557;SDS011;60583;50.094;8.748;2024-02-16T12:19:43;6.03;;;3.20;;
72557;SDS011;60583;50.094;8.748;2024-02-16T12:22:27;7.38;;;3.10;;
72557;SDS011;60583;50.094;8.748;2024-02-16T12:25:11;6.57;;;3.13;;
72557;SDS011;60583;50.094;8.748;2024-02-16T12:27:55;7.85;;;3.25;;
72557;SDS011;60583;50.094;8.748;2024-02-16T12:30:39;6.10;;;2.80;;
72557;SDS011;60583;50.094;8.748;2024-02-16T12:33:23;5.72;;;2.58;;
72557;SDS011;60583;50.094;8.748;2024-02-16T12:36:08;6.55;;;2.72;;
72557;SDS011;60583;50.094;8.748;2024-02-16T12:38:52;4.85;;;2.33;;
72557;SDS011;60583;50.094;8.748;2024-02-16T12:41:36;5.10;;;2.50;;
72557;SDS011;60583;50.094;8.748;2024-02-16T12:44:21;5.65;;;2.10;;
72557;SDS011;60583;50.094;8.748;2024-02-16T12:47:05;6.20;;;2.30;;
72557;SDS011;60583;50.094;8.748;2024-02-16T12:49:49;4.70;;;2.22;;
72557;SDS011;60583;50.094;8.748;2024-02-16T12:52:39;5.22;;;2.45;;
72557;SDS011;60583;50.094;8.748;2024-02-16T12:55:24;5.18;;;2.30;;
72557;SDS011;60583;50.094;8.748;2024-02-16T12:58:08;4.95;;;2.05;;
72557;SDS011;60583;50.094;8.748;2024-02-16T13:00:52;5.45;;;2.42;;
72557;SDS011;60583;50.094;8.748;2024-02-16T13:03:36;5.57;;;2.42;;
72557;SDS011;60583;50.094;8.748;2024-02-16T13:06:22;6.32;;;2.63;;
72557;SDS011;60583;50.094;8.748;2024-02-16T13:09:07;5.18;;;2.47;;
72557;SDS011;60583;50.094;8.748;2024-02-16T13:11:52;7.20;;;2.50;;
72557;SDS011;60583;50.094;8.748;2024-02-16T13:14:37;6.38;;;2.75;;
72557;SDS011;60583;50.094;8.748;2024-02-16T13:17:21;9.73;;;2.58;;
72557;SDS011;60583;50.094;8.748;2024-02-16T13:20:05;7.00;;;2.92;;
72557;SDS011;60583;50.094;8.748;2024-02-16T13:22:53;7.28;;;2.30;;
72557;SDS011;60583;50.094;8.748;2024-02-16T13:25:37;5.15;;;2.17;;
72557;SDS011;60583;50.094;8.748;2024-02-16T13:28:21;4.68;;;2.33;;
72557;SDS011;60583;50.094;8.748;2024-02-16T13:31:04;5.18;;;2.60;;
72557;SDS011;60583;50.094;8.748;2024-02-16T13:33:49;7.00;;;2.53;;
72557;SDS011;60583;50.094;8.748;2024-02-16T13:36:34;7.18;;;2.55;;
72557;SDS011;60583;50.094;8.748;2024-02-16T13:39:18;6.68;;;2.75;;
72557;SDS011;60583;50.094;8.748;2024-02-16T13:42:04;7.13;;;2.60;;
72557;SDS011;60583;50.094;8.748;2024-02-16T13:44:48;6.20;;;2.58;;
72557;SDS011;60583;50.094;8.748;2024-02-16T13:47:32;6.93;;;2.30;;
72557;SDS011;60583;50.094;8.748;2024-02-16T13:50:16;6.45;;;2.28;;
72557;SDS011;60583;50.094;8.748;2024-02-16T13:53:00;5.45;;;2.30;;
72557;SDS011;60583;50.094;8.748;2024-02-16T13:55:44;6.55;;;2.47;;
72557;SDS011;60583;50.094;8.748;2024-02-16T13:58:28;6.38;;;2.45;;
72557;SDS011;60583;50.094;8.748;2024-02-16T14:01:12;5.20;;;2.40;;
72557;SDS011;60583;50.094;8.748;2024-02-16T14:03:56;6.47;;;2.47;;
72557;SDS011;60583;50.094;8.748;2024-02-16T14:06:40;5.93;;;2.50;;
72557;SDS011;60583;50.094;8.748;2024-02-16T14:09:24;6.25;;;2.50;;
72557;SDS011;60583;50.094;8.748;2024-02-16T14:12:08;9.43;;;2.92;;
72557;SDS011;60583;50.094;8.748;2024-02-16T14:14:52;5.65;;;2.90;;
72557;SDS011;60583;50.094;8.748;2024-02-16T14:17:36;5.03;;;2.35;;
72557;SDS011;60583;50.094;8.748;2024-02-16T14:20:20;6.45;;;2.70;;
72557;SDS011;60583;50.094;8.748;2024-02-16T14:23:05;7.07;;;2.50;;
72557;SDS011;60583;50.094;8.748;2024-02-16T14:25:53;6.03;;;2.80;;
72557;SDS011;60583;50.094;8.748;2024-02-16T14:28:37;6.85;;;3.35;;
72557;SDS011;60583;50.094;8.748;2024-02-16T14:31:21;6.32;;;2.60;;
72557;SDS011;60583;50.094;8.748;2024-02-16T14:34:05;7.45;;;2.60;;
72557;SDS011;60583;50.094;8.748;2024-02-16T14:36:49;6.55;;;3.30;;
72557;SDS011;60583;50.094;8.748;2024-02-16T14:39:33;7.25;;;3.40;;
72557;SDS011;60583;50.094;8.748;2024-02-16T14:42:17;7.40;;;2.72;;
72557;SDS011;60583;50.094;8.748;2024-02-16T14:45:01;6.20;;;2.70;;
72557;SDS011;60583;50.094;8.748;2024-02-16T14:47:49;6.38;;;2.75;;
72557;SDS011;60583;50.094;8.748;2024-02-16T14:50:34;6.97;;;2.40;;
72557;SDS011;60583;50.094;8.748;2024-02-16T14:53:21;5.95;;;2.42;;
72557;SDS011;60583;50.094;8.748;2024-02-16T14:56:05;6.25;;;2.63;;
72557;SDS011;60583;50.094;8.748;2024-02-16T14:58:49;7.30;;;2.90;;
72557;SDS011;60583;50.094;8.748;2024-02-16T15:01:33;5.28;;;3.13;;
72557;SDS011;60583;50.094;8.748;2024-02-16T15:04:17;7.07;;;2.90;;
72557;SDS011;60583;50.094;8.748;2024-02-16T15:07:01;5.45;;;3.53;;
72557;SDS011;60583;50.094;8.748;2024-02-16T15:09:45;5.53;;;3.08;;
72557;SDS011;60583;50.094;8.748;2024-02-16T15:12:29;8.70;;;2.67;;
72557;SDS011;60583;50.094;8.748;2024-02-16T15:15:12;6.50;;;2.78;;
72557;SDS011;60583;50.094;8.748;2024-02-16T15:17:56;4.95;;;2.75;;
72557;SDS011;60583;50.094;8.748;2024-02-16T15:20:43;6.53;;;2.78;;
72557;SDS011;60583;50.094;8.748;2024-02-16T15:23:27;7.90;;;2.38;;
72557;SDS011;60583;50.094;8.748;2024-02-16T15:26:11;6.13;;;2.60;;
72557;SDS011;60583;50.094;8.748;2024-02-16T15:28:55;5.78;;;2.78;;
72557;SDS011;60583;50.094;8.748;2024-02-16T15:31:39;5.75;;;2.80;;
72557;SDS011;60583;50.094;8.748;2024-02-16T15:34:23;6.75;;;3.35;;
72557;SDS011;60583;50.094;8.748;2024-02-16T15:37:07;7.80;;;3.13;;
72557;SDS011;60583;50.094;8.748;2024-02-16T15:39:51;5.60;;;2.70;;
72557;SDS011;60583;50.094;8.748;2024-02-16T15:42:38;5.57;;;3.00;;
72557;SDS011;60583;50.094;8.748;2024-02-16T15:45:22;4.53;;;2.55;;
72557;SDS011;60583;50.094;8.748;2024-02-16T15:48:07;5.90;;;2.90;;
72557;SDS011;60583;50.094;8.748;2024-02-16T15:50:52;7.32;;;2.78;;
72557;SDS011;60583;50.094;8.748;2024-02-16T15:53:38;6.57;;;2.72;;
72557;SDS011;60583;50.094;8.748;2024-02-16T15:56:22;6.10;;;3.03;;
72557;SDS011;60583;50.094;8.748;2024-02-16T15:59:08;5.95;;;2.75;;
72557;SDS011;60583;50.094;8.748;2024-02-16T16:01:52;5.82;;;2.92;;
72557;SDS011;60583;50.094;8.748;2024-02-16T16:04:36;7.30;;;4.03;;
72557;SDS011;60583;50.094;8.748;2024-02-16T16:07:20;7.20;;;3.22;;
72557;SDS011;60583;50.094;8.748;2024-02-16T16:10:04;5.97;;;3.28;;
72557;SDS011;60583;50.094;8.748;2024-02-16T16:12:48;7.47;;;3.53;;
72557;SDS011;60583;50.094;8.748;2024-02-16T16:15:33;6.82;;;3.17;;
72557;SDS011;60583;50.094;8.748;2024-02-16T16:18:17;8.95;;;3.08;;
72557;SDS011;60583;50.094;8.748;2024-02-16T16:21:01;7.72;;;4.10;;
72557;SDS011;60583;50.094;8.748;2024-02-16T16:23:46;6.75;;;3.20;;
72557;SDS011;60583;50.094;8.748;2024-02-16T16:26:30;10.00;;;3.88;;
72557;SDS011;60583;50.094;8.748;2024-02-16T16:29:14;7.45;;;4.03;;
72557;SDS011;60583;50.094;8.748;2024-02-16T16:31:58;8.55;;;3.25;;